createdAt,value
2024-04-18T00:00:22.114Z,77.22
2024-04-18T00:01:22.183Z,77.12
2024-04-18T00:02:22.047Z,77.13
2024-04-18T00:03:22.208Z,77.07
2024-04-18T00:04:22.217Z,77.13
2024-04-18T00:05:22.071Z,77.38
2024-04-18T00:06:22.055Z,77.34
2024-04-18T00:07:22.057Z,77.57
2024-04-18T00:08:21.952Z,77.76
2024-04-18T00:09:31.784Z,77.72
2024-04-18T00:10:21.926Z,77.68
2024-04-18T00:11:22.017Z,77.63
2024-04-18T00:12:21.935Z,77.48
2024-04-18T00:13:21.997Z,77.72
2024-04-18T00:14:21.888Z,77.56
2024-04-18T00:15:22.048Z,77.45
2024-04-18T00:16:21.849Z,77.56
2024-04-18T00:17:21.970Z,77.47
2024-04-18T00:18:21.924Z,77.55
2024-04-18T00:19:21.845Z,77.64
2024-04-18T00:20:21.807Z,78.11
2024-04-18T00:21:21.993Z,78.23
2024-04-18T00:22:21.778Z,78.21
2024-04-18T00:23:21.873Z,77.93
2024-04-18T00:24:21.788Z,77.77
2024-04-18T00:25:42.774Z,77.60
2024-04-18T00:26:21.745Z,77.61
2024-04-18T00:27:21.943Z,77.58
2024-04-18T00:28:21.698Z,77.40
2024-04-18T00:29:21.712Z,77.55
2024-04-18T00:30:21.708Z,77.68
2024-04-18T00:31:21.721Z,77.67
2024-04-18T00:32:21.699Z,77.81
2024-04-18T00:33:21.693Z,77.50
2024-04-18T00:34:21.617Z,77.37
2024-04-18T00:35:21.648Z,77.35
2024-04-18T00:36:21.624Z,77.32
2024-04-18T00:37:21.654Z,77.62
2024-04-18T00:38:21.567Z,78.03
2024-04-18T00:39:21.639Z,78.03
2024-04-18T00:40:21.550Z,77.75
2024-04-18T00:41:21.590Z,77.51
2024-04-18T00:42:21.539Z,77.46
2024-04-18T00:43:21.618Z,77.32
2024-04-18T00:44:21.506Z,77.31
2024-04-18T00:45:22.592Z,77.56
2024-04-18T00:46:21.462Z,77.92
2024-04-18T00:47:21.544Z,77.65
2024-04-18T00:48:21.591Z,77.47
2024-04-18T00:49:21.477Z,77.69
2024-04-18T00:50:21.420Z,77.62
2024-04-18T00:51:21.545Z,77.65
2024-04-18T00:52:21.386Z,78.06
2024-04-18T00:53:21.475Z,77.99
2024-04-18T00:54:21.397Z,77.81
2024-04-18T00:55:21.386Z,77.96
2024-04-18T00:56:21.332Z,77.93
2024-04-18T00:57:21.491Z,77.85
2024-04-18T00:58:21.308Z,77.84
2024-04-18T00:59:21.421Z,78.03
2024-04-18T01:00:21.302Z,77.85
2024-04-18T01:01:21.500Z,77.89
2024-04-18T01:02:21.260Z,78.07
2024-04-18T01:03:21.391Z,78.10
2024-04-18T01:04:21.392Z,77.84
2024-04-18T01:05:21.301Z,77.53
2024-04-18T01:06:21.248Z,77.75
2024-04-18T01:07:21.260Z,78.12
2024-04-18T01:08:21.183Z,78.25
2024-04-18T01:09:21.255Z,78.17
2024-04-18T01:10:21.161Z,77.69
2024-04-18T01:11:21.230Z,77.85
2024-04-18T01:12:21.149Z,77.90
2024-04-18T01:13:21.212Z,78.00
2024-04-18T01:14:21.095Z,78.14
2024-04-18T01:15:21.214Z,78.00
2024-04-18T01:16:21.069Z,77.68
2024-04-18T01:17:21.168Z,78.06
2024-04-18T01:18:21.055Z,78.29
2024-04-18T01:19:21.044Z,78.00
2024-04-18T01:20:21.017Z,77.87
2024-04-18T01:21:21.149Z,77.87
2024-04-18T01:22:20.992Z,78.11
2024-04-18T01:23:23.085Z,78.34
2024-04-18T01:24:21.005Z,78.30
2024-04-18T01:25:21.008Z,78.32
2024-04-18T01:26:20.952Z,78.32
2024-04-18T01:27:21.287Z,78.28
2024-04-18T01:28:20.911Z,78.41
2024-04-18T01:29:20.920Z,78.32
2024-04-18T01:30:20.904Z,78.41
2024-04-18T01:31:20.936Z,78.43
2024-04-18T01:32:20.860Z,78.38
2024-04-18T01:33:24.281Z,78.39
2024-04-18T01:34:20.936Z,78.57
2024-04-18T01:35:20.870Z,78.84
2024-04-18T01:36:20.855Z,78.88
2024-04-18T01:37:20.884Z,78.69
2024-04-18T01:38:20.787Z,78.73
2024-04-18T01:39:26.093Z,78.72
2024-04-18T01:40:20.778Z,78.55
2024-04-18T01:41:20.794Z,78.41
2024-04-18T01:42:20.832Z,78.55
2024-04-18T01:43:20.826Z,78.57
2024-04-18T01:44:20.699Z,78.63
2024-04-18T01:45:20.843Z,78.79
2024-04-18T01:46:20.695Z,78.82
2024-04-18T01:47:20.776Z,78.68
2024-04-18T01:48:20.907Z,78.56
2024-04-18T01:49:20.771Z,78.56
2024-04-18T01:50:20.625Z,78.70
2024-04-18T01:51:20.779Z,78.77
2024-04-18T01:52:20.602Z,78.70
2024-04-18T01:53:20.701Z,78.73
2024-04-18T01:54:20.593Z,78.84
2024-04-18T01:55:20.582Z,78.92
2024-04-18T01:56:20.567Z,78.90
2024-04-18T01:57:20.751Z,79.03
2024-04-18T01:58:20.522Z,79.08
2024-04-18T01:59:20.622Z,78.98
2024-04-18T02:00:20.543Z,79.01
2024-04-18T02:01:20.558Z,78.84
2024-04-18T02:02:20.467Z,78.96
2024-04-18T02:03:20.560Z,79.08
2024-04-18T02:04:20.639Z,79.06
2024-04-18T02:05:20.483Z,79.16
2024-04-18T02:06:20.479Z,79.11
2024-04-18T02:07:21.505Z,79.24
2024-04-18T02:08:20.413Z,78.90
2024-04-18T02:09:20.518Z,78.89
2024-04-18T02:10:20.354Z,78.96
2024-04-18T02:11:20.440Z,79.23
2024-04-18T02:12:20.340Z,79.22
2024-04-18T02:13:20.412Z,79.15
2024-04-18T02:14:20.318Z,78.97
2024-04-18T02:15:20.411Z,78.91
2024-04-18T02:16:20.306Z,78.92
2024-04-18T02:17:20.361Z,78.85
2024-04-18T02:18:20.324Z,79.01
2024-04-18T02:19:20.351Z,79.06
2024-04-18T02:20:20.229Z,79.39
2024-04-18T02:21:20.325Z,79.26
2024-04-18T02:22:20.202Z,79.05
2024-04-18T02:23:20.390Z,78.91
2024-04-18T02:24:20.192Z,79.00
2024-04-18T02:25:20.219Z,79.07
2024-04-18T02:26:20.176Z,78.95
2024-04-18T02:27:20.364Z,78.92
2024-04-18T02:28:20.133Z,78.83
2024-04-18T02:29:20.258Z,78.93
2024-04-18T02:30:21.369Z,78.97
2024-04-18T02:31:20.143Z,78.51
2024-04-18T02:32:20.203Z,78.60
2024-04-18T02:33:20.244Z,78.75
2024-04-18T02:34:20.056Z,78.76
2024-04-18T02:35:21.121Z,78.50
2024-04-18T02:36:20.089Z,78.55
2024-04-18T02:37:20.116Z,78.49
2024-04-18T02:38:19.991Z,78.48
2024-04-18T02:39:20.091Z,78.42
2024-04-18T02:40:19.968Z,78.66
2024-04-18T02:41:20.004Z,78.98
2024-04-18T02:42:19.965Z,78.79
2024-04-18T02:43:20.025Z,78.76
2024-04-18T02:44:19.943Z,78.78
2024-04-18T02:45:20.019Z,79.01
2024-04-18T02:46:19.894Z,79.01
2024-04-18T02:47:19.994Z,79.10
2024-04-18T02:48:19.991Z,79.17
2024-04-18T02:49:19.971Z,78.99
2024-04-18T02:50:19.847Z,79.06
2024-04-18T02:51:20.008Z,78.72
2024-04-18T02:52:19.815Z,78.80
2024-04-18T02:53:19.901Z,78.91
2024-04-18T02:54:19.825Z,79.09
2024-04-18T02:55:19.809Z,79.18
2024-04-18T02:56:19.763Z,79.23
2024-04-18T02:57:19.893Z,79.27
2024-04-18T02:58:19.732Z,79.19
2024-04-18T02:59:19.840Z,79.44
2024-04-18T03:00:19.710Z,79.23
2024-04-18T03:01:19.786Z,79.11
2024-04-18T03:02:19.699Z,79.12
2024-04-18T03:03:19.730Z,79.22
2024-04-18T03:04:19.695Z,79.43
2024-04-18T03:05:19.675Z,79.31
2024-04-18T03:06:19.649Z,79.50
2024-04-18T03:07:19.692Z,79.73
2024-04-18T03:08:19.607Z,79.82
2024-04-18T03:09:19.700Z,79.59
2024-04-18T03:10:19.573Z,79.81
2024-04-18T03:11:19.688Z,79.85
2024-04-18T03:12:19.577Z,79.87
2024-04-18T03:13:19.644Z,80.07
2024-04-18T03:14:19.519Z,79.75
2024-04-18T03:15:19.618Z,80.00
2024-04-18T03:16:19.509Z,79.99
2024-04-18T03:17:19.604Z,79.62
2024-04-18T03:18:19.580Z,79.75
2024-04-18T03:19:19.734Z,79.91
2024-04-18T03:20:19.441Z,80.19
2024-04-18T03:21:19.560Z,80.29
2024-04-18T03:22:19.415Z,80.27
2024-04-18T03:23:19.493Z,80.27
2024-04-18T03:24:19.426Z,80.46
2024-04-18T03:25:19.433Z,80.58
2024-04-18T03:26:19.369Z,80.34
2024-04-18T03:27:19.489Z,80.22
2024-04-18T03:28:19.348Z,80.22
2024-04-18T03:29:19.449Z,80.28
2024-04-18T03:30:19.332Z,80.35
2024-04-18T03:31:19.307Z,80.43
2024-04-18T03:32:19.309Z,80.52
2024-04-18T03:33:19.458Z,80.64
2024-04-18T03:34:19.276Z,80.73
2024-04-18T03:35:19.277Z,80.67
2024-04-18T03:36:19.249Z,80.57
2024-04-18T03:37:19.302Z,80.49
2024-04-18T03:38:19.233Z,80.44
2024-04-18T03:39:19.284Z,80.34
2024-04-18T03:40:19.190Z,80.32
2024-04-18T03:41:19.211Z,80.10
2024-04-18T03:42:19.164Z,80.00
2024-04-18T03:43:19.235Z,79.71
2024-04-18T03:44:19.127Z,79.49
2024-04-18T03:45:19.331Z,79.45
2024-04-18T03:46:19.101Z,79.29
2024-04-18T03:47:19.208Z,79.11
2024-04-18T03:48:19.116Z,79.30
2024-04-18T03:49:19.177Z,79.15
2024-04-18T03:50:19.052Z,79.10
2024-04-18T03:51:19.118Z,79.22
2024-04-18T03:52:19.059Z,78.76
2024-04-18T03:53:19.110Z,78.62
2024-04-18T03:54:19.015Z,78.56
2024-04-18T03:55:19.114Z,78.61
2024-04-18T03:56:18.990Z,78.68
2024-04-18T03:57:19.180Z,78.59
2024-04-18T03:58:19.018Z,78.59
2024-04-18T03:59:19.043Z,78.58
2024-04-18T04:00:18.952Z,78.67
2024-04-18T04:01:19.119Z,79.03
2024-04-18T04:02:18.947Z,79.24
2024-04-18T04:03:19.095Z,79.13
2024-04-18T04:04:18.963Z,79.48
2024-04-18T04:05:18.878Z,79.78
2024-04-18T04:06:18.877Z,79.81
2024-04-18T04:07:19.916Z,79.70
2024-04-18T04:08:18.817Z,79.36
2024-04-18T04:09:18.913Z,79.60
2024-04-18T04:10:18.817Z,79.49
2024-04-18T04:11:18.843Z,79.30
2024-04-18T04:12:18.791Z,79.52
2024-04-18T04:13:18.844Z,79.53
2024-04-18T04:14:18.739Z,79.70
2024-04-18T04:15:18.895Z,79.60
2024-04-18T04:16:18.703Z,79.74
2024-04-18T04:17:18.758Z,80.06
2024-04-18T04:18:18.864Z,80.10
2024-04-18T04:19:18.870Z,80.10
2024-04-18T04:20:18.656Z,80.17
2024-04-18T04:21:18.764Z,79.77
2024-04-18T04:22:18.625Z,79.65
2024-04-18T04:23:18.705Z,79.49
2024-04-18T04:24:18.667Z,79.76
2024-04-18T04:25:18.620Z,80.24
2024-04-18T04:26:18.588Z,79.78
2024-04-18T04:27:18.690Z,79.52
2024-04-18T04:28:18.540Z,79.51
2024-04-18T04:29:18.673Z,79.25
2024-04-18T04:30:18.594Z,79.57
2024-04-18T04:31:18.521Z,79.28
2024-04-18T04:32:18.564Z,79.14
2024-04-18T04:33:18.556Z,79.21
2024-04-18T04:34:18.476Z,79.25
2024-04-18T04:35:18.487Z,79.39
2024-04-18T04:36:18.469Z,79.44
2024-04-18T04:37:18.500Z,79.57
2024-04-18T04:38:19.323Z,79.45
2024-04-18T04:39:18.504Z,79.35
2024-04-18T04:40:18.391Z,79.52
2024-04-18T04:41:18.382Z,79.40
2024-04-18T04:42:18.410Z,79.17
2024-04-18T04:43:18.430Z,79.11
2024-04-18T04:44:18.331Z,79.27
2024-04-18T04:45:18.521Z,79.54
2024-04-18T04:46:18.316Z,78.99
2024-04-18T04:47:18.369Z,79.13
2024-04-18T04:48:18.343Z,79.17
2024-04-18T04:49:18.446Z,79.09
2024-04-18T04:50:18.273Z,79.06
2024-04-18T04:51:18.368Z,78.67
2024-04-18T04:52:18.229Z,78.25
2024-04-18T04:53:18.305Z,78.34
2024-04-18T04:54:18.246Z,78.04
2024-04-18T04:55:18.221Z,78.67
2024-04-18T04:56:18.211Z,78.65
2024-04-18T04:57:18.327Z,78.32
2024-04-18T04:58:18.505Z,78.22
2024-04-18T04:59:18.249Z,78.33
2024-04-18T05:00:18.221Z,78.51
2024-04-18T05:01:18.199Z,78.20
2024-04-18T05:02:18.110Z,78.29
2024-04-18T05:03:18.303Z,77.94
2024-04-18T05:04:18.209Z,78.15
2024-04-18T05:05:18.095Z,78.71
2024-04-18T05:06:18.430Z,78.59
2024-04-18T05:07:18.104Z,78.70
2024-04-18T05:08:18.023Z,78.22
2024-04-18T05:09:18.245Z,77.96
2024-04-18T05:10:18.006Z,78.07
2024-04-18T05:11:18.088Z,78.60
2024-04-18T05:12:18.137Z,78.21
2024-04-18T05:13:18.052Z,77.94
2024-04-18T05:14:17.940Z,78.70
2024-04-18T05:15:18.077Z,78.39
2024-04-18T05:16:17.936Z,78.19
2024-04-18T05:17:17.972Z,77.87
2024-04-18T05:18:17.992Z,78.00
2024-04-18T05:19:18.031Z,78.11
2024-04-18T05:20:17.865Z,78.32
2024-04-18T05:21:18.006Z,78.72
2024-04-18T05:22:17.847Z,78.62
2024-04-18T05:23:17.910Z,78.84
2024-04-18T05:24:17.877Z,78.74
2024-04-18T05:25:17.955Z,78.23
2024-04-18T05:26:17.798Z,78.27
2024-04-18T05:27:17.929Z,78.62
2024-04-18T05:28:17.760Z,78.18
2024-04-18T05:29:17.853Z,78.26
2024-04-18T05:30:17.768Z,78.36
2024-04-18T05:31:17.832Z,78.51
2024-04-18T05:32:17.812Z,78.72
2024-04-18T05:33:17.910Z,78.78
2024-04-18T05:34:17.692Z,78.83
2024-04-18T05:35:17.697Z,78.87
2024-04-18T05:36:17.880Z,78.63
2024-04-18T05:37:22.534Z,78.45
2024-04-18T05:38:18.704Z,78.88
2024-04-18T05:39:17.805Z,78.68
2024-04-18T05:40:17.600Z,78.62
2024-04-18T05:41:17.665Z,78.39
2024-04-18T05:42:17.727Z,78.84
2024-04-18T05:43:17.648Z,78.20
2024-04-18T05:44:17.590Z,78.12
2024-04-18T05:45:17.563Z,78.37
2024-04-18T05:46:17.530Z,78.24
2024-04-18T05:47:17.660Z,78.24
2024-04-18T05:48:17.548Z,78.28
2024-04-18T05:49:17.590Z,78.25
2024-04-18T05:50:17.519Z,77.97
2024-04-18T05:51:17.562Z,77.79
2024-04-18T05:52:17.529Z,77.68
2024-04-18T05:53:17.537Z,77.81
2024-04-18T05:54:17.511Z,77.93
2024-04-18T05:55:17.430Z,77.24
2024-04-18T05:56:17.402Z,77.10
2024-04-18T05:57:17.493Z,77.18
2024-04-18T05:58:17.368Z,77.32
2024-04-18T05:59:17.474Z,77.83
2024-04-18T06:00:17.441Z,78.02
2024-04-18T06:01:17.442Z,77.75
2024-04-18T06:02:17.356Z,77.24
2024-04-18T06:03:17.419Z,76.95
2024-04-18T06:04:17.381Z,77.03
2024-04-18T06:05:17.306Z,76.37
2024-04-18T06:06:17.348Z,76.52
2024-04-18T06:07:17.316Z,76.10
2024-04-18T06:08:17.284Z,75.86
2024-04-18T06:09:17.386Z,76.05
2024-04-18T06:10:17.257Z,75.83
2024-04-18T06:11:17.286Z,75.33
2024-04-18T06:12:17.246Z,74.83
2024-04-18T06:13:17.264Z,75.19
2024-04-18T06:14:17.185Z,74.83
2024-04-18T06:15:17.394Z,75.64
2024-04-18T06:16:17.256Z,75.60
2024-04-18T06:17:17.194Z,75.25
2024-04-18T06:18:17.125Z,75.36
2024-04-18T06:19:17.216Z,75.29
2024-04-18T06:20:17.112Z,75.01
2024-04-18T06:21:17.293Z,75.42
2024-04-18T06:22:17.056Z,75.55
2024-04-18T06:23:17.126Z,74.80
2024-04-18T06:24:17.034Z,74.27
2024-04-18T06:25:17.074Z,73.88
2024-04-18T06:26:17.072Z,73.13
2024-04-18T06:27:17.058Z,72.97
2024-04-18T06:28:16.977Z,72.82
2024-04-18T06:29:17.069Z,73.63
2024-04-18T06:30:16.942Z,73.19
2024-04-18T06:31:17.008Z,73.38
2024-04-18T06:32:16.938Z,72.13
2024-04-18T06:33:17.077Z,72.04
2024-04-18T06:34:16.945Z,72.50
2024-04-18T06:35:17.411Z,72.47
2024-04-18T06:36:17.090Z,71.98
2024-04-18T06:37:17.331Z,70.53
2024-04-18T06:38:16.893Z,70.64
2024-04-18T06:39:16.970Z,71.08
2024-04-18T06:40:16.803Z,71.31
2024-04-18T06:41:16.848Z,71.25
2024-04-18T06:42:16.785Z,70.54
2024-04-18T06:43:16.863Z,69.72
2024-04-18T06:44:16.798Z,68.45
2024-04-18T06:45:16.786Z,68.85
2024-04-18T06:46:16.748Z,69.25
2024-04-18T06:47:16.814Z,68.64
2024-04-18T06:48:16.732Z,68.91
2024-04-18T06:49:16.841Z,69.45
2024-04-18T06:50:16.705Z,70.48
2024-04-18T06:51:16.711Z,70.19
2024-04-18T06:52:16.673Z,69.45
2024-04-18T06:53:16.733Z,69.84
2024-04-18T06:54:16.636Z,69.95
2024-04-18T06:55:16.662Z,69.77
2024-04-18T06:56:17.662Z,70.06
2024-04-18T06:57:16.692Z,69.10
2024-04-18T06:58:16.582Z,69.50
2024-04-18T06:59:16.669Z,68.28
2024-04-18T07:00:16.569Z,68.70
2024-04-18T07:01:16.758Z,68.04
2024-04-18T07:02:16.548Z,68.26
2024-04-18T07:03:37.672Z,68.62
2024-04-18T07:04:16.626Z,68.13
2024-04-18T07:05:16.540Z,68.63
2024-04-18T07:06:16.483Z,68.11
2024-04-18T07:07:16.517Z,67.85
2024-04-18T07:08:16.474Z,67.96
2024-04-18T07:09:16.548Z,67.54
2024-04-18T07:10:16.433Z,67.81
2024-04-18T07:11:16.494Z,67.48
2024-04-18T07:12:16.417Z,67.68
2024-04-18T07:13:16.463Z,68.23
2024-04-18T07:14:16.422Z,69.05
2024-04-18T07:15:16.410Z,69.09
2024-04-18T07:16:16.416Z,68.36
2024-04-18T07:17:16.396Z,67.85
2024-04-18T07:18:16.361Z,68.06
2024-04-18T07:19:16.444Z,68.80
2024-04-18T07:20:16.324Z,68.65
2024-04-18T07:21:16.406Z,68.23
2024-04-18T07:22:16.292Z,68.08
2024-04-18T07:23:16.362Z,68.23
2024-04-18T07:24:16.240Z,68.28
2024-04-18T07:25:16.270Z,68.87
2024-04-18T07:26:16.254Z,69.17
2024-04-18T07:27:16.266Z,70.06
2024-04-18T07:28:16.187Z,68.15
2024-04-18T07:29:18.267Z,67.51
2024-04-18T07:30:16.172Z,67.84
2024-04-18T07:31:18.474Z,68.49
2024-04-18T07:32:16.161Z,68.81
2024-04-18T07:33:16.631Z,68.84
2024-04-18T07:34:16.705Z,67.77
2024-04-18T07:35:19.148Z,68.79
2024-04-18T07:36:17.247Z,68.47
2024-04-18T07:37:16.135Z,68.16
2024-04-18T07:38:16.104Z,68.68
2024-04-18T07:39:16.620Z,68.85
2024-04-18T07:40:16.519Z,68.58
2024-04-18T07:41:17.429Z,67.82
2024-04-18T07:42:16.122Z,68.07
2024-04-18T07:43:16.126Z,69.28
2024-04-18T07:44:17.302Z,67.70
2024-04-18T07:45:18.819Z,67.27
2024-04-18T07:46:16.026Z,68.03
2024-04-18T07:47:16.022Z,68.42
2024-04-18T07:48:17.379Z,66.78
2024-04-18T07:49:39.665Z,67.30
2024-04-18T07:50:15.911Z,67.27
2024-04-18T07:51:15.933Z,66.96
2024-04-18T07:52:17.108Z,66.98
2024-04-18T07:53:15.958Z,66.60
2024-04-18T07:54:15.910Z,66.84
2024-04-18T07:55:15.937Z,67.12
2024-04-18T07:56:16.334Z,67.31
2024-04-18T07:57:16.203Z,67.61
2024-04-18T07:58:16.600Z,67.48
2024-04-18T07:59:16.751Z,67.75
2024-04-18T08:00:20.991Z,67.75
2024-04-18T08:01:31.860Z,66.57
2024-04-18T08:02:20.945Z,66.02
2024-04-18T08:03:17.586Z,66.08
2024-04-18T08:04:34.796Z,66.17
2024-04-18T08:05:19.083Z,65.91
2024-04-18T08:06:17.896Z,66.15
2024-04-18T08:07:19.770Z,67.04
2024-04-18T08:08:17.831Z,66.85
2024-04-18T08:09:19.440Z,67.02
2024-04-18T08:10:22.385Z,67.10
2024-04-18T08:11:41.194Z,66.15
2024-04-18T08:12:24.336Z,66.58
2024-04-18T08:13:20.018Z,68.61
2024-04-18T08:14:19.795Z,65.64
2024-04-18T08:15:20.687Z,64.19
2024-04-18T08:16:17.795Z,64.95
2024-04-18T08:17:16.040Z,65.52
2024-04-18T08:18:16.120Z,65.51
2024-04-18T08:19:15.937Z,64.80
2024-04-18T08:20:15.615Z,64.68
2024-04-18T08:21:15.554Z,65.24
2024-04-18T08:22:15.500Z,65.97
2024-04-18T08:23:15.751Z,65.51
2024-04-18T08:24:15.521Z,66.31
2024-04-18T08:25:16.461Z,67.00
2024-04-18T08:26:15.442Z,64.96
2024-04-18T08:27:15.526Z,65.83
2024-04-18T08:28:15.406Z,67.83
2024-04-18T08:29:15.497Z,65.72
2024-04-18T08:30:15.443Z,65.80
2024-04-18T08:31:15.409Z,65.76
2024-04-18T08:32:15.406Z,66.01
2024-04-18T08:33:15.602Z,66.04
2024-04-18T08:34:18.375Z,65.72
2024-04-18T08:35:15.312Z,64.22
2024-04-18T08:36:15.455Z,64.41
2024-04-18T08:37:15.301Z,64.17
2024-04-18T08:38:15.345Z,63.10
2024-04-18T08:39:15.286Z,63.72
2024-04-18T08:40:15.283Z,62.97
2024-04-18T08:41:15.242Z,63.66
2024-04-18T08:42:15.401Z,63.35
2024-04-18T08:43:15.205Z,63.25
2024-04-18T08:44:15.300Z,63.15
2024-04-18T08:45:15.269Z,63.45
2024-04-18T08:46:15.195Z,62.92
2024-04-18T08:47:15.248Z,63.51
2024-04-18T08:48:15.368Z,63.25
2024-04-18T08:49:16.113Z,61.79
2024-04-18T08:50:16.170Z,61.94
2024-04-18T08:51:15.165Z,62.94
2024-04-18T08:52:15.138Z,62.85
2024-04-18T08:53:15.097Z,62.44
2024-04-18T08:54:15.183Z,63.56
2024-04-18T08:55:15.039Z,62.66
2024-04-18T08:56:15.080Z,63.03
2024-04-18T08:57:15.077Z,63.58
2024-04-18T08:58:15.085Z,64.00
2024-04-18T08:59:15.008Z,64.37
2024-04-18T09:00:15.117Z,64.62
2024-04-18T09:01:15.055Z,63.92
2024-04-18T09:02:15.028Z,63.97
2024-04-18T09:03:15.001Z,64.49
2024-04-18T09:04:15.095Z,64.11
2024-04-18T09:05:14.908Z,64.86
2024-04-18T09:06:15.057Z,64.31
2024-04-18T09:07:14.880Z,64.82
2024-04-18T09:08:14.963Z,63.85
2024-04-18T09:09:14.925Z,61.75
2024-04-18T09:10:14.900Z,62.53
2024-04-18T09:11:14.885Z,62.31
2024-04-18T09:12:14.972Z,62.23
2024-04-18T09:13:14.797Z,62.73
2024-04-18T09:14:14.894Z,61.87
2024-04-18T09:15:14.826Z,61.44
2024-04-18T09:16:14.867Z,61.87
2024-04-18T09:17:14.794Z,62.67
2024-04-18T09:18:14.968Z,62.26
2024-04-18T09:19:14.763Z,62.42
2024-04-18T09:20:14.737Z,61.95
2024-04-18T09:21:14.725Z,61.68
2024-04-18T09:22:14.755Z,60.61
2024-04-18T09:23:14.668Z,60.15
2024-04-18T09:24:14.762Z,59.94
2024-04-18T09:25:14.641Z,59.59
2024-04-18T09:26:14.680Z,60.28
2024-04-18T09:27:14.643Z,60.09
2024-04-18T09:28:14.692Z,60.17
2024-04-18T09:29:14.592Z,59.06
2024-04-18T09:30:14.713Z,59.81
2024-04-18T09:31:17.166Z,59.50
2024-04-18T09:32:14.586Z,57.75
2024-04-18T09:33:14.883Z,58.85
2024-04-18T09:34:14.607Z,59.38
2024-04-18T09:35:14.531Z,58.66
2024-04-18T09:36:14.584Z,57.69
2024-04-18T09:37:14.565Z,58.11
2024-04-18T09:38:14.471Z,55.15
2024-04-18T09:39:16.933Z,55.22
2024-04-18T09:40:14.475Z,58.25
2024-04-18T09:41:14.474Z,56.74
2024-04-18T09:42:14.467Z,56.31
2024-04-18T09:43:14.485Z,53.38
2024-04-18T09:44:14.390Z,54.12
2024-04-18T09:45:14.426Z,54.72
2024-04-18T09:46:14.370Z,54.58
2024-04-18T09:47:14.416Z,52.26
2024-04-18T09:48:14.474Z,51.82
2024-04-18T09:49:14.666Z,52.72
2024-04-18T09:50:14.307Z,53.20
2024-04-18T09:51:14.423Z,53.92
2024-04-18T09:52:14.268Z,52.28
2024-04-18T09:53:14.359Z,52.67
2024-04-18T09:54:14.321Z,53.62
2024-04-18T09:55:14.269Z,52.72
2024-04-18T09:56:14.230Z,52.23
2024-04-18T09:57:14.377Z,52.35
2024-04-18T09:58:14.200Z,52.25
2024-04-18T09:59:14.320Z,51.90
2024-04-18T10:00:14.223Z,53.47
2024-04-18T10:01:14.247Z,53.91
2024-04-18T10:02:14.220Z,54.95
2024-04-18T10:03:14.260Z,54.59
2024-04-18T10:04:14.261Z,54.36
2024-04-18T10:05:14.139Z,53.16
2024-04-18T10:06:14.125Z,54.03
2024-04-18T10:07:14.152Z,54.13
2024-04-18T10:08:14.089Z,55.81
2024-04-18T10:09:14.192Z,55.31
2024-04-18T10:10:14.040Z,55.15
2024-04-18T10:11:14.133Z,54.35
2024-04-18T10:12:14.071Z,56.26
2024-04-18T10:13:15.883Z,55.56
2024-04-18T10:14:13.991Z,55.19
2024-04-18T10:15:14.065Z,55.45
2024-04-18T10:16:13.982Z,55.53
2024-04-18T10:17:14.017Z,56.74
2024-04-18T10:18:14.059Z,57.18
2024-04-18T10:19:14.248Z,55.88
2024-04-18T10:20:13.943Z,55.40
2024-04-18T10:21:14.009Z,55.63
2024-04-18T10:22:23.599Z,55.32
2024-04-18T10:23:14.929Z,54.78
2024-04-18T10:24:13.991Z,54.94
2024-04-18T10:25:13.853Z,55.08
2024-04-18T10:26:13.882Z,52.62
2024-04-18T10:27:13.847Z,51.62
2024-04-18T10:28:13.896Z,52.31
2024-04-18T10:29:13.812Z,55.62
2024-04-18T10:30:13.818Z,54.76
2024-04-18T10:31:13.780Z,52.60
2024-04-18T10:32:13.831Z,51.47
2024-04-18T10:33:13.842Z,53.57
2024-04-18T10:34:13.842Z,53.50
2024-04-18T10:35:13.748Z,51.69
2024-04-18T10:36:13.772Z,49.76
2024-04-18T10:37:13.675Z,50.82
2024-04-18T10:38:13.760Z,54.92
2024-04-18T10:39:13.688Z,54.21
2024-04-18T10:40:15.777Z,52.12
2024-04-18T10:41:13.666Z,53.50
2024-04-18T10:42:13.716Z,53.78
2024-04-18T10:43:15.809Z,53.96
2024-04-18T10:44:13.599Z,52.95
2024-04-18T10:45:13.678Z,54.01
2024-04-18T10:46:13.587Z,54.28
2024-04-18T10:47:13.695Z,51.79
2024-04-18T10:48:14.291Z,49.40
2024-04-18T10:49:13.633Z,50.20
2024-04-18T10:50:13.562Z,50.52
2024-04-18T10:51:13.609Z,49.67
2024-04-18T10:52:13.498Z,48.38
2024-04-18T10:53:13.601Z,48.85
2024-04-18T10:54:13.498Z,48.78
2024-04-18T10:55:13.504Z,49.99
2024-04-18T10:56:13.439Z,48.72
2024-04-18T10:57:13.554Z,49.54
2024-04-18T10:58:13.397Z,50.20
2024-04-18T10:59:13.471Z,52.54
2024-04-18T11:00:13.419Z,52.47
2024-04-18T11:01:16.074Z,48.11
2024-04-18T11:02:13.383Z,48.53
2024-04-18T11:03:13.478Z,48.63
2024-04-18T11:04:13.424Z,48.17
2024-04-18T11:05:13.458Z,48.67
2024-04-18T11:06:13.379Z,46.89
2024-04-18T11:07:13.373Z,47.19
2024-04-18T11:08:13.299Z,48.30
2024-04-18T11:09:13.410Z,47.00
2024-04-18T11:10:13.270Z,49.61
2024-04-18T11:11:21.082Z,49.46
2024-04-18T11:12:13.258Z,52.87
2024-04-18T11:13:13.299Z,49.54
2024-04-18T11:14:14.758Z,49.56
2024-04-18T11:15:13.245Z,50.06
2024-04-18T11:16:13.203Z,49.96
2024-04-18T11:17:13.236Z,48.72
2024-04-18T11:18:13.293Z,50.02
2024-04-18T11:19:13.390Z,49.98
2024-04-18T11:20:13.119Z,47.20
2024-04-18T11:21:13.175Z,47.40
2024-04-18T11:22:13.112Z,48.96
2024-04-18T11:23:15.425Z,47.63
2024-04-18T11:24:13.123Z,48.05
2024-04-18T11:25:13.083Z,47.30
2024-04-18T11:26:13.040Z,45.95
2024-04-18T11:27:13.185Z,46.74
2024-04-18T11:28:13.716Z,46.17
2024-04-18T11:29:13.175Z,47.57
2024-04-18T11:30:13.069Z,48.44
2024-04-18T11:31:14.142Z,48.81
2024-04-18T11:32:12.992Z,46.90
2024-04-18T11:33:13.121Z,46.72
2024-04-18T11:34:12.949Z,49.54
2024-04-18T11:35:17.140Z,46.40
2024-04-18T11:36:12.919Z,45.55
2024-04-18T11:37:12.985Z,45.91
2024-04-18T11:38:12.898Z,45.36
2024-04-18T11:39:13.123Z,44.54
2024-04-18T11:40:12.885Z,44.86
2024-04-18T11:41:12.923Z,45.04
2024-04-18T11:42:12.862Z,46.30
2024-04-18T11:43:13.179Z,47.96
2024-04-18T11:44:12.835Z,46.47
2024-04-18T11:45:12.958Z,47.20
2024-04-18T11:46:12.810Z,47.90
2024-04-18T11:47:12.866Z,48.47
2024-04-18T11:48:12.899Z,47.06
2024-04-18T11:49:12.840Z,46.29
2024-04-18T11:50:12.780Z,45.79
2024-04-18T11:51:12.820Z,46.83
2024-04-18T11:52:12.727Z,47.86
2024-04-18T11:53:12.781Z,45.95
2024-04-18T11:54:12.695Z,48.43
2024-04-18T11:55:12.703Z,44.91
2024-04-18T11:56:12.647Z,45.03
2024-04-18T11:57:12.813Z,45.56
2024-04-18T11:58:12.690Z,46.55
2024-04-18T11:59:12.637Z,47.00
2024-04-18T12:00:12.611Z,48.47
2024-04-18T12:01:12.643Z,49.60
2024-04-18T12:02:12.580Z,48.40
2024-04-18T12:03:12.777Z,47.11
2024-04-18T12:04:13.233Z,48.19
2024-04-18T12:05:12.660Z,48.71
2024-04-18T12:06:12.541Z,47.99
2024-04-18T12:07:12.580Z,48.38
2024-04-18T12:08:12.483Z,47.35
2024-04-18T12:09:12.553Z,46.23
2024-04-18T12:10:12.472Z,46.72
2024-04-18T12:11:12.550Z,48.11
2024-04-18T12:12:12.454Z,48.26
2024-04-18T12:13:12.513Z,46.39
2024-04-18T12:14:12.411Z,45.67
2024-04-18T12:15:12.478Z,45.64
2024-04-18T12:16:12.431Z,45.60
2024-04-18T12:17:12.448Z,46.19
2024-04-18T12:18:12.460Z,49.01
2024-04-18T12:19:12.355Z,47.46
2024-04-18T12:20:12.313Z,48.38
2024-04-18T12:21:12.420Z,46.94
2024-04-18T12:22:12.341Z,46.76
2024-04-18T12:23:34.313Z,47.32
2024-04-18T12:24:12.309Z,47.48
2024-04-18T12:25:12.350Z,48.35
2024-04-18T12:26:12.286Z,48.98
2024-04-18T12:27:12.339Z,48.36
2024-04-18T12:28:12.248Z,50.08
2024-04-18T12:29:12.223Z,48.97
2024-04-18T12:30:12.254Z,47.68
2024-04-18T12:31:12.236Z,47.21
2024-04-18T12:32:12.198Z,47.06
2024-04-18T12:33:12.341Z,47.44
2024-04-18T12:34:12.162Z,48.76
2024-04-18T12:35:12.205Z,48.58
2024-04-18T12:36:12.133Z,48.18
2024-04-18T12:37:12.184Z,47.78
2024-04-18T12:38:12.093Z,50.01
2024-04-18T12:39:12.149Z,48.11
2024-04-18T12:40:12.091Z,47.20
2024-04-18T12:41:13.167Z,47.63
2024-04-18T12:42:12.077Z,48.39
2024-04-18T12:43:12.118Z,49.12
2024-04-18T12:44:12.004Z,49.22
2024-04-18T12:45:12.072Z,49.34
2024-04-18T12:46:18.055Z,48.29
2024-04-18T12:47:13.029Z,51.22
2024-04-18T12:48:12.256Z,47.79
2024-04-18T12:49:12.059Z,47.72
2024-04-18T12:50:12.041Z,46.64
2024-04-18T12:51:11.962Z,47.94
2024-04-18T12:52:11.963Z,50.33